Time;durP1;ratioP1;P1;durP2;ratioP2;P2;SDS_P1;SDS_P2;PMS_P1;PMS_P2;Temp;Humidity;BMP_temperature;BMP_pressure;BME280_temperature;BME280_humidity;BME280_pressure;Samples;Min_cycle;Max_cycle;Signal;HPM_P1;HPM_P2
2022/10/05 05:30:28;;;;;;;4.80;3.22;;;;;;;10.59;100.00;100720.72;1708947;82;21156;-38
2022/10/05 05:33:14;;;;;;;6.20;3.12;;;;;;;10.74;99.37;100720.83;1693209;80;21127;-38
2022/10/05 05:36:28;;;;;;;5.12;2.72;;;;;;;10.83;97.53;100723.92;1664595;82;21838;-41
2022/10/05 05:39:17;;;;;;;;;;;;;;;10.90;95.56;100735.77;1724890;81;20984;-37
2022/10/05 05:42:30;;;;;;;4.15;3.15;;;;;;;10.96;94.45;100725.77;1721804;81;20135;-37
2022/10/05 05:45:10;;;;;;;6.72;3.17;;;;;;;11.01;93.36;100737.10;1717678;81;21103;-37
2022/10/05 05:48:15;;;;;;;7.30;3.15;;;;;;;11.06;92.54;100738.00;1724593;81;20981;-36
2022/10/05 05:51:07;;;;;;;7.65;4.08;;;;;;;11.09;92.17;100738.04;1715701;81;21476;-36
2022/10/05 05:54:19;;;;;;;5.87;3.72;;;;;;;11.13;91.22;100738.91;1679206;83;21119;-42
2022/10/05 05:57:46;;;;;;;8.25;4.00;;;;;;;11.13;90.39;100748.98;1705899;82;21144;-35
2022/10/05 06:00:44;;;;;;;5.05;3.30;;;;;;;11.12;89.99;100752.44;1681575;82;21076;-36
2022/10/05 06:03:40;;;;;;;7.20;3.12;;;;;;;11.17;90.25;100763.81;1656342;83;21465;-41
2022/10/05 06:06:11;;;;;;;4.08;3.20;;;;;;;11.25;90.40;100762.56;1689830;82;21451;-41
2022/10/05 06:08:44;;;;;;;6.67;3.83;;;;;;;11.36;90.59;100766.08;1690625;82;20974;-36
2022/10/05 06:11:41;;;;;;;3.90;2.90;;;;;;;11.42;89.33;100769.16;1709846;82;21025;-41
2022/10/05 06:14:18;;;;;;;5.92;3.10;;;;;;;11.41;88.87;100777.89;1691732;82;21415;-42
2022/10/05 06:16:51;;;;;;;3.08;2.83;;;;;;;11.45;88.06;100779.66;1690363;82;21033;-41
2022/10/05 06:19:20;;;;;;;5.50;3.30;;;;;;;11.55;87.83;100777.53;1706784;82;21159;-42
2022/10/05 06:22:12;;;;;;;3.72;2.83;;;;;;;11.67;87.66;100787.17;1684371;82;21053;-42
2022/10/05 06:25:14;;;;;;;4.97;2.92;;;;;;;11.79;87.38;100776.73;1711370;82;21422;-41
2022/10/05 06:28:11;;;;;;;5.72;3.47;;;;;;;11.92;84.71;100790.77;1678623;84;20981;-43
2022/10/05 06:30:52;;;;;;;6.33;2.90;;;;;;;12.01;84.95;100797.80;1696074;83;21587;-43
2022/10/05 06:33:33;;;;;;;5.53;2.90;;;;;;;12.08;83.74;100803.05;1692847;83;21021;-43
2022/10/05 06:36:32;;;;;;;4.90;3.50;;;;;;;12.10;84.01;100802.60;1690495;83;21093;-43
2022/10/05 06:39:30;;;;;;;7.15;2.67;;;;;;;12.12;84.55;100813.99;1697207;83;21036;-41
2022/10/05 06:42:09;;;;;;;3.70;2.72;;;;;;;12.12;82.80;100814.43;1687032;83;21452;-42
2022/10/05 06:45:02;;;;;;;3.22;2.50;;;;;;;12.09;82.94;100817.03;1692632;83;21335;-42
2022/10/05 06:47:46;;;;;;;4.90;2.40;;;;;;;12.08;83.89;100814.84;1684176;83;21060;-42
2022/10/05 06:50:54;;;;;;;4.53;2.50;;;;;;;12.09;83.21;100821.84;1684767;83;22062;-43
2022/10/05 06:53:49;;;;;;;4.00;2.25;;;;;;;12.18;82.88;100824.49;1652032;84;21001;-41
2022/10/05 06:56:26;;;;;;;5.65;2.83;;;;;;;12.28;81.55;100837.17;1672442;84;21045;-36
2022/10/05 06:59:13;;;;;;;4.03;2.70;;;;;;;12.29;81.08;100846.78;1674030;84;21673;-37
2022/10/05 07:02:02;;;;;;;3.65;2.25;;;;;;;12.29;80.21;100836.73;1701571;82;21076;-42
2022/10/05 07:04:52;;;;;;;5.70;2.30;;;;;;;12.30;81.20;100838.51;1679852;82;21080;-41
2022/10/05 07:07:54;;;;;;;5.25;2.47;;;;;;;12.39;81.21;100845.93;1712240;81;21052;-42
2022/10/05 07:10:39;;;;;;;8.65;2.40;;;;;;;12.46;81.16;100846.81;1711392;81;21159;-42
2022/10/05 07:13:42;;;;;;;2.52;2.20;;;;;;;12.44;80.41;100853.81;1714325;82;21502;-42
2022/10/05 07:16:29;;;;;;;6.65;2.30;;;;;;;12.38;80.55;100854.68;1716430;81;21445;-36
2022/10/05 07:19:27;;;;;;;5.53;2.60;;;;;;;12.34;81.74;100859.48;1721042;81;20956;-42
2022/10/05 07:22:17;;;;;;;3.92;2.60;;;;;;;12.35;81.54;100869.53;1714690;81;21050;-41
2022/10/05 07:25:12;;;;;;;4.08;2.67;;;;;;;12.34;82.49;100873.91;1719542;81;21136;-41
2022/10/05 07:27:53;;;;;;;6.50;3.37;;;;;;;12.27;82.76;100873.47;1722387;81;20946;-42
2022/10/05 07:30:20;;;;;;;2.83;2.52;;;;;;;12.16;83.84;100893.55;1716610;81;21025;-41
2022/10/05 07:33:08;;;;;;;6.87;2.75;;;;;;;12.07;84.24;100898.78;1696059;82;20990;-41
2022/10/05 07:38:57;;;;;;;4.25;2.65;;;;;;;12.07;84.45;100905.34;1574057;89;21083;-41
2022/10/05 07:41:46;;;;;;;4.22;2.40;;;;;;;12.19;83.79;100906.25;1572057;89;21132;-42
2022/10/05 07:44:28;;;;;;;3.40;2.35;;;;;;;12.28;81.73;100908.44;1578572;89;21422;-41
2022/10/05 07:47:18;;;;;;;3.77;2.15;;;;;;;12.27;81.59;100911.94;1576089;89;21027;-36
2022/10/05 07:50:01;;;;;;;5.03;2.33;;;;;;;12.26;81.79;100912.38;1576323;89;21311;-41
2022/10/05 07:53:03;;;;;;;8.65;2.47;;;;;;;12.32;82.09;100919.39;1574387;89;21770;-38
2022/10/05 07:56:28;;;;;;;7.55;2.17;;;;;;;12.41;81.58;100918.13;1576768;88;21790;-36
2022/10/05 08:15:23;;;;;;;3.85;2.20;;;;;;;12.85;75.13;100911.59;1733994;81;21029;-36
2022/10/05 08:18:43;;;;;;;3.65;2.17;;;;;;;12.75;76.22;100900.64;1735515;81;20966;-36
2022/10/05 08:21:12;;;;;;;4.03;2.17;;;;;;;12.76;76.83;100911.17;1670567;84;21078;-36
2022/10/05 08:23:53;;;;;;;3.37;2.02;;;;;;;12.78;77.12;100908.54;1670652;84;20997;-37
2022/10/05 08:26:46;;;;;;;4.17;2.47;;;;;;;12.79;76.37;100902.41;1634444;86;21644;-37
2022/10/05 08:29:34;;;;;;;4.45;2.40;;;;;;;12.85;75.52;100910.73;1674507;84;21043;-37
2022/10/05 08:32:05;;;;;;;7.15;2.30;;;;;;;12.93;75.31;100926.03;1659259;84;21551;-37
2022/10/05 08:34:48;;;;;;;3.83;2.37;;;;;;;13.10;74.94;100907.65;1645081;85;21515;-37
2022/10/05 08:37:27;;;;;;;3.30;1.70;;;;;;;13.19;74.57;100905.91;1637795;86;21663;-37
2022/10/05 08:40:32;;;;;;;10.00;2.83;;;;;;;13.21;73.18;100919.94;1638380;86;21111;-36
2022/10/05 08:43:37;;;;;;;5.25;1.82;;;;;;;13.19;72.31;100914.22;1628558;85;21055;-36
2022/10/05 08:46:35;;;;;;;4.47;1.92;;;;;;;13.25;72.77;100914.25;1638944;86;21100;-37
2022/10/05 08:49:28;;;;;;;3.75;2.00;;;;;;;13.43;72.62;100902.39;1640821;86;21616;-41
2022/10/05 08:52:10;;;;;;;4.62;1.72;;;;;;;13.60;70.96;100907.61;1667298;83;21144;-36
2022/10/05 08:55:17;;;;;;;3.22;2.05;;;;;;;13.75;70.03;100902.76;1699764;82;21666;-36
2022/10/05 08:58:22;;;;;;;5.22;1.70;;;;;;;13.80;69.67;100905.81;1699472;82;21010;-39
2022/10/05 09:01:06;;;;;;;5.42;2.02;;;;;;;13.77;70.79;100913.69;1696652;82;21267;-41
2022/10/05 09:04:00;;;;;;;2.10;1.60;;;;;;;13.75;71.64;100902.76;1701299;84;21356;-42
2022/10/05 09:06:50;;;;;;;2.98;1.85;;;;;;;13.74;70.96;100907.55;1669705;85;20988;-42
2022/10/05 09:09:41;;;;;;;2.60;1.82;;;;;;;13.67;70.71;100909.33;1697383;84;20997;-42
2022/10/05 09:12:58;;;;;;;1.62;1.52;;;;;;;13.57;70.03;100916.39;1699589;82;21033;-37
2022/10/05 09:16:33;;;;;;;1.87;1.70;;;;;;;13.46;70.49;100911.59;1703997;82;21622;-36
2022/10/05 09:20:00;;;;;;;4.87;2.00;;;;;;;13.36;70.18;100908.55;1683089;82;21035;-42
2022/10/05 09:22:47;;;;;;;2.70;1.87;;;;;;;13.24;70.01;100916.00;1664834;84;21075;-36
2022/10/05 09:25:32;;;;;;;1.62;1.35;;;;;;;13.14;71.11;100922.10;1662210;84;21099;-37
2022/10/05 09:28:16;;;;;;;1.87;1.65;;;;;;;13.20;70.05;100914.66;1663677;84;21000;-42
2022/10/05 09:31:11;;;;;;;4.20;1.70;;;;;;;13.36;69.51;100916.87;1610003;84;28416;-37
2022/10/05 09:34:06;;;;;;;4.85;2.30;;;;;;;13.65;69.62;100913.73;1674717;83;21683;-41
2022/10/05 09:37:00;;;;;;;3.98;1.72;;;;;;;13.95;67.16;100897.41;1676968;83;21459;-42
2022/10/05 09:39:42;;;;;;;;;;;;;;;14.14;68.00;100899.50;1673502;83;21040;-39
2022/10/05 09:42:29;;;;;;;2.65;1.50;;;;;;;14.36;67.73;100899.83;1673911;83;20134;-37
2022/10/05 09:45:10;;;;;;;2.72;1.90;;;;;;;14.38;66.12;100901.59;1673818;83;21047;-38
2022/10/05 09:48:09;;;;;;;1.72;1.42;;;;;;;14.28;65.85;100902.95;1677688;83;21072;-40
2022/10/05 09:51:04;;;;;;;4.12;1.92;;;;;;;14.13;64.19;100900.39;1680441;83;22060;-37
2022/10/05 09:54:00;;;;;;;2.80;1.47;;;;;;;14.00;64.29;100900.45;1677484;83;21274;-35
2022/10/05 09:56:50;;;;;;;2.08;1.25;;;;;;;14.02;66.06;100905.70;1675624;83;21962;-37
2022/10/05 09:59:42;;;;;;;3.37;1.12;;;;;;;14.28;64.97;100913.04;1678268;83;21025;-36
2022/10/05 10:02:20;;;;;;;5.97;2.08;;;;;;;14.64;64.09;100896.61;1647053;84;21077;-38
2022/10/05 10:05:53;;;;;;;2.12;1.70;;;;;;;15.09;63.43;100905.04;1681331;83;21591;-37
2022/10/05 10:08:37;;;;;;;1.72;1.40;;;;;;;15.25;61.93;100911.92;1684539;83;21019;-36
2022/10/05 10:12:01;;;;;;;6.87;2.00;;;;;;;15.12;61.35;100907.19;1684855;83;21032;-36
2022/10/05 10:15:13;;;;;;;4.85;1.65;;;;;;;14.87;61.03;100909.16;1687121;83;20993;-37
2022/10/05 10:18:12;;;;;;;1.47;1.37;;;;;;;14.75;61.85;100920.23;1666824;83;21079;-43
2022/10/05 10:20:57;;;;;;;2.22;1.45;;;;;;;15.24;60.15;100915.42;1685070;83;21165;-43
2022/10/05 10:24:05;;;;;;;2.70;1.35;;;;;;;15.59;58.42;100912.88;1683207;83;21552;-42
2022/10/05 10:27:35;;;;;;;1.62;1.37;;;;;;;15.59;58.65;100920.78;1684764;83;21095;-41
2022/10/05 10:30:46;;;;;;;2.08;1.47;;;;;;;15.62;58.81;100919.45;1680170;83;21599;-35
2022/10/05 10:34:13;;;;;;;3.85;1.40;;;;;;;16.07;58.47;100900.92;1657327;83;21116;-38
2022/10/05 10:37:38;;;;;;;1.70;1.45;;;;;;;16.77;55.44;100904.80;1706062;81;22014;-39
2022/10/05 10:44:16;;;;;;;37.80;25.65;;;;;;;16.87;53.81;100894.06;1708715;82;21398;-36
2022/10/05 10:47:30;;;;;;;30.02;17.50;;;;;;;16.46;54.47;100899.92;1707315;82;21067;-38
2022/10/05 10:50:24;;;;;;;42.83;24.27;;;;;;;16.35;55.03;100892.60;1704753;82;20970;-36
2022/10/05 10:53:14;;;;;;;13.48;7.10;;;;;;;16.74;55.05;100888.53;1710166;82;21009;-37
2022/10/05 10:56:19;;;;;;;6.28;1.87;;;;;;;16.91;54.28;100876.36;1710172;82;21009;-37
2022/10/05 10:59:24;;;;;;;9.50;6.35;;;;;;;17.00;53.63;100878.86;1680295;85;21680;-41
2022/10/05 11:02:20;;;;;;;4.85;2.92;;;;;;;17.42;53.30;100875.02;1705631;82;21029;-38
2022/10/05 11:05:01;;;;;;;7.40;2.02;;;;;;;17.71;52.59;100875.31;1717027;82;21536;-41
2022/10/05 11:07:51;;;;;;;2.47;1.30;;;;;;;17.68;51.72;100870.07;1699998;82;21626;-38
2022/10/05 11:10:29;;;;;;;1.57;1.30;;;;;;;17.71;52.27;100867.83;1716093;82;21002;-38
2022/10/05 11:13:16;;;;;;;15.43;8.40;;;;;;;17.66;50.92;100861.76;1725547;81;21015;-38
2022/10/05 11:16:13;;;;;;;24.12;9.93;;;;;;;17.64;51.49;100851.21;1730713;81;21310;-44
2022/10/05 11:19:29;;;;;;;7.45;2.95;;;;;;;17.51;52.12;100852.34;1724408;81;21429;-42
2022/10/05 11:22:26;;;;;;;5.03;1.82;;;;;;;17.23;53.20;100850.70;1722831;82;21667;-42
2022/10/05 11:25:27;;;;;;;1.50;1.20;;;;;;;17.06;54.86;100842.20;1710569;81;21007;-42
2022/10/05 11:28:20;;;;;;;4.12;1.80;;;;;;;16.92;53.02;100847.26;1722327;81;21600;-42
2022/10/05 11:31:11;;;;;;;2.92;1.42;;;;;;;16.71;54.31;100861.72;1729710;81;21091;-42
2022/10/05 11:34:02;;;;;;;1.90;1.45;;;;;;;16.70;53.67;100858.66;1721805;82;21019;-42
2022/10/05 11:37:00;;;;;;;3.58;1.35;;;;;;;16.73;53.63;100866.52;1714741;83;21594;-43
2022/10/05 11:39:54;;;;;;;1.95;1.10;;;;;;;16.72;52.79;100885.05;1714492;82;21004;-43
2022/10/05 11:42:59;;;;;;;3.17;2.62;;;;;;;16.66;52.81;100878.05;1705458;82;21455;-43
2022/10/05 11:45:46;;;;;;;3.35;1.92;;;;;;;16.54;53.82;100877.38;1705044;83;21055;-42
2022/10/05 11:48:38;;;;;;;1.47;1.22;;;;;;;16.28;54.58;100874.66;1677275;85;21073;-38
2022/10/05 11:51:33;;;;;;;6.30;2.92;;;;;;;15.75;55.94;100883.28;1646818;87;21042;-38
2022/10/05 11:54:25;;;;;;;5.83;3.95;;;;;;;15.75;55.94;100883.28;1679595;85;21112;-43
2022/10/05 11:57:17;;;;;;;6.87;2.62;;;;;;;15.49;56.24;100895.43;1614807;87;21089;-43
2022/10/05 12:00:14;;;;;;;4.50;1.82;;;;;;;15.49;56.24;100895.43;1612709;87;21008;-38
2022/10/05 12:03:11;;;;;;;2.80;1.10;;;;;;;15.46;55.87;100900.72;1598295;89;21418;-40
2022/10/05 12:06:13;;;;;;;1.35;0.88;;;;;;;15.52;55.60;100908.56;1611692;88;21103;-38
2022/10/05 12:09:26;;;;;;;2.08;1.42;;;;;;;15.59;54.81;100910.23;1611670;88;21072;-38
2022/10/05 12:12:13;;;;;;;1.30;1.02;;;;;;;15.62;53.82;100917.72;1599011;89;21104;-42
2022/10/05 12:14:55;;;;;;;2.58;1.45;;;;;;;15.60;54.63;100915.52;1611950;88;21002;-37
2022/10/05 12:17:41;;;;;;;1.22;1.05;;;;;;;15.60;54.97;100923.88;1613090;89;21013;-37
2022/10/05 12:20:27;;;;;;;1.90;1.30;;;;;;;15.58;54.92;100911.14;1599550;89;21083;-43
2022/10/05 12:23:16;;;;;;;3.80;1.72;;;;;;;15.50;55.61;100919.59;1576124;89;21026;-37
2022/10/05 12:26:03;;;;;;;3.33;1.80;;;;;;;15.34;56.54;100917.09;1639834;86;21134;-39
2022/10/05 12:28:37;;;;;;;2.65;1.15;;;;;;;15.20;56.07;100917.68;1651117;86;21506;-42
2022/10/05 12:31:18;;;;;;;3.50;1.70;;;;;;;15.10;57.13;100926.55;1629331;87;21051;-43
2022/10/05 12:34:01;;;;;;;1.95;1.50;;;;;;;15.04;57.96;100929.23;1723538;82;21095;-43
2022/10/05 12:36:51;;;;;;;7.17;1.82;;;;;;;15.01;59.33;100935.83;1740659;81;21053;-43
2022/10/05 12:39:32;;;;;;;2.80;1.22;;;;;;;15.01;59.32;100933.20;1740676;81;20961;-43
2022/10/05 12:42:19;;;;;;;1.72;1.20;;;;;;;15.03;58.47;100927.49;1739787;81;21057;-38
2022/10/05 12:45:06;;;;;;;3.37;1.37;;;;;;;15.04;57.56;100921.33;1734678;82;20978;-43
2022/10/05 12:48:07;;;;;;;3.55;1.10;;;;;;;15.06;57.90;100919.09;1736606;82;21513;-38
2022/10/05 12:50:37;;;;;;;1.92;0.90;;;;;;;15.07;57.24;100912.94;1739857;81;21029;-43
2022/10/05 12:53:34;;;;;;;1.25;1.15;;;;;;;15.06;56.01;100912.51;1733095;82;21541;-38
2022/10/05 12:56:20;;;;;;;4.75;1.20;;;;;;;15.03;56.66;100912.55;1740201;81;21018;-43
2022/10/05 12:59:04;;;;;;;1.87;1.07;;;;;;;15.04;57.22;100929.23;1739498;82;21412;-38
2022/10/05 13:01:53;;;;;;;1.20;0.90;;;;;;;15.06;57.17;100923.05;1739343;82;21045;-43
2022/10/05 13:04:52;;;;;;;2.83;1.07;;;;;;;15.11;56.57;100931.80;1730229;82;20970;-39
2022/10/05 13:07:39;;;;;;;3.25;1.00;;;;;;;15.15;56.28;100930.89;1739736;82;21060;-43
2022/10/05 13:10:31;;;;;;;2.45;1.52;;;;;;;15.16;55.80;100928.68;1733779;81;21060;-38
2022/10/05 13:13:10;;;;;;;1.45;1.35;;;;;;;15.15;55.90;100922.98;1740330;81;21021;-43
2022/10/05 13:16:03;;;;;;;2.55;1.50;;;;;;;15.12;56.78;100926.95;1740765;82;21065;-43
2022/10/05 13:18:53;;;;;;;4.12;1.47;;;;;;;15.08;55.39;100926.56;1740926;82;21029;-43
